Ardmore, OK (73401)

11:47 AM CDT on April 28, 2015 (GMT -0500)
Carter County EMA | | Change Station
CLOSE
Current Station
Personal Weather Station
Location: Ardmore, OK
Elevation: 922 ft
Nearby Weather Stations

Elev 922 ft 34.17 °N, 97.13 °W | Updated 8 minutes ago

Overcast
Overcast
53.2 °F
Feels Like 53.2 °F
N
4.0
Wind Variable Wind from NNE
Gusts 15.0 mph

Today
High -- | Low -- °F
--% Chance of Precip.
Yesterday
High -- | Low -- °F
Precip. -- in
6:42 AM 8:10 PM
Waxing Gibbous, 75% visible
Pressure 30.14 in
Visibility 10.0 miles
Clouds Mostly Cloudy 1900 ft
Mostly Cloudy 4200 ft
Overcast 7000 ft
Dew Point 48 °F
Humidity 82%
Rainfall 0.02 in
Snow Depth Not available.
UV 3 out of 12
Pollen 2.90 out of 12
Air Quality Not available.
Flu Activity Local Activity
METAR K1F0 281635Z AUTO 03009G15KT 10SM BKN019 BKN042 OVC070 12/08 A3014 RMK AO2

More Conditions Fewer Conditions

Pressure 30.14 in
Visibility 10.0 miles
Clouds Mostly Cloudy 1900 ft
Mostly Cloudy 4200 ft
Overcast 7000 ft
Dew Point 48 °F
Humidity 82%
Rainfall 0.02 in
Snow Depth Not available.
UV 3 out of 12
Pollen 2.90 out of 12
Air Quality Not available.
Flu Activity Local Activity
METAR K1F0 281635Z AUTO 03009G15KT 10SM BKN019 BKN042 OVC070 12/08 A3014 RMK AO2

More Conditions Fewer Conditions

10-Day Weather Forecast

Almanac

Astronomy

Apr. 28, 2015 Rise Set
Actual Time
Civil Twilight
Nautical Twilight
Astronomical Twilight
Moon
Length of Visible Light
Length of Day
Tomorrow will be .
, % of the Moon is Illuminated

Today's Extremes

State Highs State Lows

Community

WunderPhotos

Upload Photos

1,817,699 photos uploaded!

WunderBlogs® & News

Nearby

Air Quality

  Air Quality AQ Index Pollutant
Not available.

Snow Depth

Station Depth Elevation

Earthquake Activity

City Distance Mag. Time & Date
Minimum magnitude displayed is 2.5.

Coastal Water Temperatures

Place Temperature

Stations

Nearby Weather Stations

Station Location Temp. Windchill Dew Point Humidity Wind Precip. Elev Updated Type